createdAt,value
2018-07-04T00:01:34.532Z,4.30
2018-07-04T00:04:14.418Z,4.07
2018-07-04T00:06:54.227Z,4.37
2018-07-04T00:09:28.029Z,5.20
2018-07-04T00:12:07.779Z,5.23
2018-07-04T00:14:47.792Z,5.30
2018-07-04T00:17:27.995Z,4.97
2018-07-04T00:20:01.675Z,5.17
2018-07-04T00:22:41.704Z,4.80
2018-07-04T00:25:21.520Z,5.60
2018-07-04T00:28:02.407Z,5.20
2018-07-04T00:30:42.209Z,5.20
2018-07-04T00:33:22.180Z,5.80
2018-07-04T00:36:02.020Z,5.40
2018-07-04T00:38:35.851Z,5.20
2018-07-04T00:41:09.522Z,5.90
2018-07-04T00:43:43.305Z,5.47
2018-07-04T00:46:23.953Z,5.50
2018-07-04T00:49:03.945Z,5.37
2018-07-04T00:51:37.802Z,5.90
2018-07-04T00:54:17.659Z,5.40
2018-07-04T00:56:57.760Z,6.10
2018-07-04T00:59:37.744Z,5.83
2018-07-04T01:02:17.831Z,6.37
2018-07-04T01:04:57.861Z,5.20
2018-07-04T01:07:37.670Z,5.33
2018-07-04T01:10:11.416Z,5.10
2018-07-04T01:12:52.077Z,5.10
2018-07-04T01:15:25.851Z,5.13
2018-07-04T01:18:05.855Z,5.23
2018-07-04T01:20:45.162Z,5.57
2018-07-04T01:23:25.223Z,5.10
2018-07-04T01:26:05.117Z,5.37
2018-07-04T01:28:48.303Z,5.00
2018-07-04T01:31:28.390Z,5.47
2018-07-04T01:34:08.746Z,5.40
2018-07-04T01:36:42.520Z,5.90
2018-07-04T01:39:22.786Z,5.30
2018-07-04T01:41:56.750Z,5.67
2018-07-04T01:44:36.726Z,5.50
2018-07-04T01:47:10.521Z,5.57
2018-07-04T01:49:50.373Z,4.90
2018-07-04T01:52:24.278Z,5.10
2018-07-04T01:55:04.113Z,5.17
2018-07-04T01:57:44.700Z,4.80
2018-07-04T02:00:24.458Z,5.00
2018-07-04T02:03:04.540Z,4.97
2018-07-04T02:05:38.754Z,4.60
2018-07-04T02:08:18.883Z,4.97
2018-07-04T02:10:58.823Z,5.20
2018-07-04T02:13:38.540Z,5.40
2018-07-04T02:16:18.679Z,5.57
2018-07-04T02:18:52.611Z,5.00
2018-07-04T02:21:32.443Z,5.00
2018-07-04T02:24:13.123Z,5.17
2018-07-04T02:26:52.948Z,4.83
2018-07-04T02:29:26.957Z,5.50
2018-07-04T02:32:06.763Z,5.70
2018-07-04T02:34:40.496Z,4.90
2018-07-04T02:37:20.243Z,5.47
2018-07-04T02:40:00.155Z,5.50
2018-07-04T02:42:40.104Z,4.93
2018-07-04T02:45:20.012Z,4.50
2018-07-04T02:47:54.068Z,5.40
2018-07-04T02:50:28.287Z,4.90
2018-07-04T02:53:01.997Z,5.07
2018-07-04T02:55:41.658Z,4.90
2018-07-04T02:58:15.558Z,4.80
2018-07-04T03:02:18.839Z,4.90
2018-07-04T03:04:52.655Z,4.20
2018-07-04T03:07:32.530Z,5.47
2018-07-04T03:10:12.546Z,4.80
2018-07-04T03:12:46.352Z,5.10
2018-07-04T03:15:26.241Z,4.77
2018-07-04T03:18:00.231Z,5.10
2018-07-04T03:20:33.913Z,5.00
2018-07-04T03:23:13.614Z,4.43
2018-07-04T03:25:53.486Z,4.83
2018-07-04T03:28:34.195Z,5.13
2018-07-04T03:31:07.985Z,5.00
2018-07-04T03:33:47.876Z,5.03
2018-07-04T03:36:27.627Z,4.67
2018-07-04T03:39:07.887Z,5.60
2018-07-04T03:41:41.688Z,5.40
2018-07-04T03:44:15.359Z,5.33
2018-07-04T03:46:50.469Z,5.00
2018-07-04T03:49:30.316Z,5.27
2018-07-04T03:52:10.396Z,4.50
2018-07-04T03:54:50.139Z,5.00
2018-07-04T03:57:23.971Z,4.67
2018-07-04T03:59:57.959Z,5.37
2018-07-04T04:02:37.820Z,4.80
2018-07-04T04:05:18.574Z,5.30
2018-07-04T04:07:52.460Z,5.10
2018-07-04T04:10:32.237Z,4.77
2018-07-04T04:13:12.113Z,5.30
2018-07-04T04:15:46.008Z,4.80
2018-07-04T04:18:25.892Z,4.77
2018-07-04T04:21:06.027Z,5.00
2018-07-04T04:23:45.877Z,4.97
2018-07-04T04:26:25.811Z,5.00
2018-07-04T04:29:05.595Z,5.20
2018-07-04T04:31:45.578Z,5.20
2018-07-04T04:34:25.460Z,4.80
2018-07-04T04:37:05.435Z,5.10
2018-07-04T04:39:39.420Z,4.60
2018-07-04T04:42:13.155Z,4.60
2018-07-04T04:44:53.016Z,4.83
2018-07-04T04:47:33.785Z,5.40
2018-07-04T04:50:07.564Z,5.03
2018-07-04T04:52:42.019Z,5.00
2018-07-04T04:55:22.329Z,5.07
2018-07-04T04:58:02.205Z,4.80
2018-07-04T05:00:42.040Z,5.30
2018-07-04T05:03:21.901Z,5.80
2018-07-04T05:05:55.876Z,5.07
2018-07-04T05:08:35.839Z,4.43
2018-07-04T05:11:15.815Z,5.00
2018-07-04T05:13:49.853Z,4.80
2018-07-04T05:16:29.775Z,5.40
2018-07-04T05:19:09.769Z,4.80
2018-07-04T05:21:43.764Z,4.47
2018-07-04T05:24:23.398Z,4.20
2018-07-04T05:26:57.170Z,5.00
2018-07-04T05:29:37.174Z,4.70
2018-07-04T05:32:17.692Z,4.67
2018-07-04T05:34:51.594Z,5.10
2018-07-04T05:37:31.870Z,4.20
2018-07-04T05:40:20.038Z,5.03
2018-07-04T05:43:01.528Z,5.30
2018-07-04T05:45:35.622Z,5.10
2018-07-04T05:48:09.598Z,4.83
2018-07-04T05:50:44.506Z,5.20
2018-07-04T05:53:18.716Z,5.20
2018-07-04T05:55:58.897Z,5.40
2018-07-04T05:58:33.208Z,5.10
2018-07-04T06:01:07.071Z,6.27
2018-07-04T06:03:41.212Z,5.27
2018-07-04T06:06:21.143Z,5.43
2018-07-04T06:09:03.022Z,6.17
2018-07-04T06:11:43.150Z,5.37
2018-07-04T06:14:17.167Z,6.40
2018-07-04T06:16:51.010Z,5.67
2018-07-04T06:19:25.122Z,5.30
2018-07-04T06:21:58.932Z,5.50
2018-07-04T06:24:33.275Z,5.17
2018-07-04T06:27:13.724Z,5.70
2018-07-04T06:29:47.771Z,5.00
2018-07-04T06:32:21.769Z,5.53
2018-07-04T06:35:01.965Z,5.70
2018-07-04T06:37:37.294Z,5.43
2018-07-04T06:40:05.690Z,6.00
2018-07-04T06:42:33.864Z,4.97
2018-07-04T06:45:05.717Z,5.80
2018-07-04T06:47:33.783Z,5.50
2018-07-04T06:50:11.160Z,5.53
2018-07-04T06:52:40.638Z,5.00
2018-07-04T06:55:08.846Z,5.40
2018-07-04T06:57:36.691Z,5.37
2018-07-04T07:00:04.419Z,5.70
2018-07-04T07:02:32.046Z,5.60
2018-07-04T07:05:06.042Z,5.30
2018-07-04T07:07:40.023Z,4.80
2018-07-04T07:10:13.838Z,6.47
2018-07-04T07:12:48.094Z,5.93
2018-07-04T07:15:29.549Z,5.57
2018-07-04T07:18:03.734Z,5.40
2018-07-04T07:20:37.662Z,5.07
2018-07-04T07:23:11.688Z,4.77
2018-07-04T07:25:57.282Z,5.20
2018-07-04T07:28:32.414Z,5.30
2018-07-04T07:34:00.617Z,4.83
2018-07-04T07:36:34.662Z,4.67
2018-07-04T07:39:08.528Z,5.00
2018-07-04T07:41:42.997Z,5.57
2018-07-04T07:44:24.579Z,4.50
2018-07-04T07:46:58.780Z,4.90
2018-07-04T07:49:38.601Z,5.13
2018-07-04T07:52:18.817Z,4.50
2018-07-04T07:54:52.760Z,4.40
2018-07-04T07:57:26.562Z,4.47
2018-07-04T08:00:00.619Z,4.43
2018-07-04T08:02:35.269Z,5.53
2018-07-04T08:05:09.495Z,4.67
2018-07-04T08:07:43.242Z,4.60
2018-07-04T08:10:17.193Z,4.30
2018-07-04T08:12:51.018Z,4.30
2018-07-04T08:15:24.944Z,4.20
2018-07-04T08:17:58.922Z,3.97
2018-07-04T08:20:32.882Z,4.27
2018-07-04T08:23:06.798Z,4.67
2018-07-04T08:25:40.705Z,4.20
2018-07-04T08:28:14.642Z,4.37
2018-07-04T08:30:48.439Z,4.07
2018-07-04T08:33:22.479Z,4.40
2018-07-04T08:35:56.579Z,3.30
2018-07-04T08:38:36.552Z,3.30
2018-07-04T08:41:11.460Z,3.73
2018-07-04T08:43:53.112Z,3.77
2018-07-04T08:46:26.978Z,3.80
2018-07-04T08:49:00.969Z,3.70
2018-07-04T08:51:34.874Z,2.83
2018-07-04T08:54:08.799Z,3.40
2018-07-04T08:56:42.608Z,3.40
2018-07-04T08:59:16.488Z,3.60
2018-07-04T09:01:50.418Z,3.97
2018-07-04T09:04:24.201Z,3.00
2018-07-04T09:06:58.287Z,3.37
2018-07-04T09:09:32.158Z,3.70
2018-07-04T09:12:06.033Z,3.40
2018-07-04T09:14:40.832Z,3.30
2018-07-04T09:17:20.712Z,3.57
2018-07-04T09:19:54.612Z,3.07
2018-07-04T09:22:28.541Z,3.70
2018-07-04T09:25:02.385Z,3.70
2018-07-04T09:27:36.178Z,3.50
2018-07-04T09:30:10.115Z,3.30
2018-07-04T09:32:44.234Z,3.60
2018-07-04T09:35:18.240Z,3.23
2018-07-04T09:37:52.152Z,3.00
2018-07-04T09:40:26.018Z,2.93
2018-07-04T09:42:59.947Z,3.27
2018-07-04T09:45:34.770Z,3.20
2018-07-04T09:48:08.849Z,3.63
2018-07-04T09:50:42.828Z,3.97
2018-07-04T09:53:16.857Z,3.97
2018-07-04T09:55:50.709Z,4.20
2018-07-04T09:58:24.757Z,3.80
2018-07-04T10:01:04.079Z,4.03
2018-07-04T10:03:38.016Z,4.03
2018-07-04T10:06:11.859Z,4.03
2018-07-04T10:08:45.785Z,4.20
2018-07-04T10:11:19.590Z,4.07
2018-07-04T10:13:53.615Z,4.37
2018-07-04T10:16:27.441Z,4.40
2018-07-04T10:19:01.539Z,5.07
2018-07-04T10:21:35.582Z,5.20
2018-07-04T10:24:15.671Z,4.90
2018-07-04T10:26:50.771Z,4.63
2018-07-04T10:29:30.921Z,5.10
2018-07-04T10:32:04.818Z,5.87
2018-07-04T10:34:38.688Z,4.63
2018-07-04T10:37:12.710Z,4.20
2018-07-04T10:39:46.651Z,4.33
2018-07-04T10:42:20.440Z,4.13
2018-07-04T10:44:54.548Z,4.23
2018-07-04T10:47:34.538Z,3.83
2018-07-04T10:50:08.550Z,3.73
2018-07-04T10:52:42.349Z,3.80
2018-07-04T10:55:16.165Z,3.87
2018-07-04T10:58:05.397Z,4.77
2018-07-04T11:00:46.917Z,4.30
2018-07-04T11:03:20.712Z,4.30
2018-07-04T11:05:55.175Z,4.00
2018-07-04T11:08:38.911Z,4.43
2018-07-04T11:11:18.745Z,4.57
2018-07-04T11:13:53.038Z,4.40
2018-07-04T11:16:33.078Z,4.50
2018-07-04T11:19:07.210Z,4.00
2018-07-04T11:21:41.209Z,4.70
2018-07-04T11:24:15.031Z,5.37
2018-07-04T11:27:00.783Z,4.40
2018-07-04T11:29:35.115Z,4.00
2018-07-04T11:32:15.144Z,4.10
2018-07-04T11:34:59.959Z,4.83
2018-07-04T11:37:35.500Z,4.57
2018-07-04T11:40:10.334Z,4.60
2018-07-04T11:42:44.198Z,4.70
2018-07-04T11:45:26.064Z,4.70
2018-07-04T11:48:02.497Z,4.30
2018-07-04T11:50:31.246Z,4.40
2018-07-04T11:52:58.731Z,4.97
2018-07-04T11:55:27.259Z,4.50
2018-07-04T11:57:54.995Z,4.93
2018-07-04T12:00:22.749Z,4.90
2018-07-04T12:02:50.726Z,4.53
2018-07-04T12:05:25.026Z,4.50
2018-07-04T12:07:53.150Z,4.17
2018-07-04T12:10:20.837Z,4.87
2018-07-04T12:12:48.472Z,4.50
2018-07-04T12:15:16.355Z,5.10
2018-07-04T12:17:44.202Z,4.27
2018-07-04T12:20:11.940Z,4.50
2018-07-04T12:22:39.707Z,4.40
2018-07-04T12:25:07.170Z,4.43
2018-07-04T12:27:34.852Z,4.67
2018-07-04T12:30:03.056Z,4.33
2018-07-04T12:32:30.792Z,3.90
2018-07-04T12:34:58.271Z,4.30
2018-07-04T12:37:26.080Z,3.63
2018-07-04T12:39:53.488Z,3.40
2018-07-04T12:42:21.217Z,4.10
2018-07-04T12:44:53.071Z,4.27
2018-07-04T12:47:21.196Z,4.40
2018-07-04T12:49:52.011Z,4.30
2018-07-04T12:52:28.084Z,3.90
2018-07-04T12:55:17.297Z,3.90
2018-07-04T12:58:03.018Z,4.40
2018-07-04T13:03:35.588Z,4.60
2018-07-04T13:06:18.976Z,4.50
2018-07-04T13:08:57.029Z,4.60
2018-07-04T13:11:40.794Z,4.80
2018-07-04T13:14:22.700Z,4.10
2018-07-04T13:17:08.636Z,4.07
2018-07-04T13:19:46.027Z,4.13
2018-07-04T13:22:26.728Z,4.60
2018-07-04T13:25:03.628Z,3.67
2018-07-04T13:36:12.831Z,4.00
2018-07-04T13:38:47.943Z,3.47
2018-07-04T13:41:27.959Z,3.23
2018-07-04T13:44:07.556Z,3.23
2018-07-04T13:55:04.368Z,3.30
2018-07-04T13:57:45.177Z,3.07
2018-07-04T14:00:19.347Z,2.83
2018-07-04T14:02:53.724Z,3.50
2018-07-04T14:05:40.647Z,3.70
2018-07-04T14:13:57.083Z,2.70
2018-07-04T14:16:31.303Z,2.60
2018-07-04T14:19:05.831Z,3.50
2018-07-04T14:21:39.737Z,3.30
2018-07-04T14:24:28.113Z,3.43
2018-07-04T14:27:03.228Z,3.77
2018-07-04T14:32:28.715Z,4.03
2018-07-04T14:35:02.997Z,3.30
2018-07-04T14:40:26.317Z,3.90
2018-07-04T14:43:01.657Z,3.90
2018-07-04T14:45:37.490Z,3.90
2018-07-04T14:48:20.483Z,4.10
2018-07-04T14:50:56.314Z,5.20
2018-07-04T14:53:36.825Z,3.20
2018-07-04T14:56:11.180Z,3.07
2018-07-04T14:58:46.691Z,3.97
2018-07-04T15:01:20.478Z,2.93
2018-07-04T15:04:00.296Z,3.67
2018-07-04T15:06:34.107Z,3.43
2018-07-04T15:09:08.090Z,2.90
2018-07-04T15:11:41.795Z,3.27
2018-07-04T15:14:15.609Z,3.20
2018-07-04T15:16:49.339Z,3.50
2018-07-04T15:19:23.165Z,4.07
2018-07-04T15:22:03.087Z,3.03
2018-07-04T15:24:37.414Z,2.70
2018-07-04T15:27:11.151Z,3.10
2018-07-04T15:29:45.198Z,2.30
2018-07-04T15:32:18.977Z,2.43
2018-07-04T15:34:52.917Z,2.17
2018-07-04T15:37:26.792Z,2.60
2018-07-04T15:40:00.504Z,4.00
2018-07-04T15:42:34.472Z,3.53
2018-07-04T15:45:08.332Z,3.43
2018-07-04T15:47:42.202Z,3.10
2018-07-04T15:50:15.970Z,2.70
2018-07-04T15:52:49.798Z,3.40
2018-07-04T15:55:23.889Z,3.40
2018-07-04T15:57:58.298Z,2.80
2018-07-04T16:00:40.637Z,3.23
2018-07-04T16:03:20.386Z,3.00
2018-07-04T16:06:00.324Z,3.43
2018-07-04T16:08:34.344Z,3.30
2018-07-04T16:11:08.077Z,4.00
2018-07-04T16:13:42.007Z,2.80
2018-07-04T16:16:16.258Z,3.17
2018-07-04T16:18:50.395Z,3.57
2018-07-04T16:21:30.267Z,4.03
2018-07-04T16:24:03.966Z,3.63
2018-07-04T16:26:43.996Z,3.57
2018-07-04T16:29:17.756Z,4.10
2018-07-04T16:31:51.703Z,3.00
2018-07-04T16:34:25.446Z,3.77
2018-07-04T16:36:59.439Z,2.93
2018-07-04T16:39:35.273Z,3.57
2018-07-04T16:42:09.384Z,3.43
2018-07-04T16:44:49.177Z,3.50
2018-07-04T16:47:29.282Z,3.07
2018-07-04T16:50:03.338Z,3.20
2018-07-04T16:52:37.084Z,3.83
2018-07-04T16:55:10.964Z,3.97
2018-07-04T16:57:44.918Z,3.30
2018-07-04T17:00:18.816Z,4.07
2018-07-04T17:02:52.923Z,4.60
2018-07-04T17:05:26.784Z,3.90
2018-07-04T17:08:04.695Z,3.60
2018-07-04T17:10:38.558Z,3.63
2018-07-04T17:13:12.476Z,3.47
2018-07-04T17:15:46.344Z,3.33
2018-07-04T17:18:20.770Z,3.90
2018-07-04T17:21:00.727Z,3.20
2018-07-04T17:23:34.700Z,3.13
2018-07-04T17:26:14.694Z,3.80
2018-07-04T17:28:51.491Z,4.03
2018-07-04T17:31:25.577Z,3.60
2018-07-04T17:34:05.466Z,3.90
2018-07-04T17:36:45.300Z,3.57
2018-07-04T17:39:19.268Z,4.13
2018-07-04T17:41:53.218Z,3.70
2018-07-04T17:44:27.195Z,3.50
2018-07-04T17:47:01.486Z,3.63
2018-07-04T17:49:41.429Z,3.40
2018-07-04T17:52:15.441Z,3.90
2018-07-04T17:54:49.510Z,4.53
2018-07-04T17:57:24.136Z,4.70
2018-07-04T18:00:04.110Z,4.07
2018-07-04T18:02:38.200Z,4.10
2018-07-04T18:05:12.044Z,4.00
2018-07-04T18:07:46.327Z,4.50
2018-07-04T18:10:20.524Z,3.87
2018-07-04T18:13:00.582Z,4.50
2018-07-04T18:15:40.512Z,4.20
2018-07-04T18:18:20.632Z,3.77
2018-07-04T18:20:54.437Z,3.80
2018-07-04T18:23:28.484Z,4.37
2018-07-04T18:26:02.550Z,3.90
2018-07-04T18:28:42.556Z,4.50
2018-07-04T18:31:22.403Z,4.60
2018-07-04T18:33:56.417Z,4.33
2018-07-04T18:36:30.327Z,4.30
2018-07-04T18:39:04.603Z,4.40
2018-07-04T18:41:38.572Z,4.60
2018-07-04T18:44:12.445Z,3.97
2018-07-04T18:46:46.269Z,4.30
2018-07-04T18:49:20.234Z,4.20
2018-07-04T18:51:54.214Z,3.40
2018-07-04T18:54:36.259Z,4.17
2018-07-04T18:57:10.966Z,3.90
2018-07-04T18:59:44.922Z,4.50
2018-07-04T19:02:25.429Z,4.30
2018-07-04T19:05:00.088Z,4.57
2018-07-04T19:07:46.109Z,4.30
2018-07-04T19:10:22.472Z,3.90
2018-07-04T19:12:59.651Z,3.70
2018-07-04T19:15:36.450Z,4.20
2018-07-04T19:18:12.547Z,4.00
2018-07-04T19:20:51.134Z,3.50
2018-07-04T19:23:44.867Z,4.30
2018-07-04T19:26:21.554Z,3.53
2018-07-04T19:28:55.475Z,3.90
2018-07-04T19:31:31.335Z,4.13
2018-07-04T19:34:05.255Z,3.90
2018-07-04T19:36:39.168Z,3.90
2018-07-04T19:39:13.099Z,3.77
2018-07-04T19:41:47.787Z,3.70
2018-07-04T19:44:27.514Z,4.00
2018-07-04T19:47:01.572Z,4.40
2018-07-04T19:49:35.540Z,4.00
2018-07-04T19:52:15.452Z,4.10
2018-07-04T19:54:50.528Z,4.23
2018-07-04T19:57:38.971Z,4.30
2018-07-04T20:00:14.901Z,4.10
2018-07-04T20:08:30.138Z,4.57
2018-07-04T20:13:57.034Z,3.80
2018-07-04T20:16:31.904Z,3.90
2018-07-04T20:19:12.344Z,3.97
2018-07-04T20:21:58.302Z,4.00
2018-07-04T20:24:47.942Z,4.60
2018-07-04T20:27:38.269Z,4.00
2018-07-04T20:30:29.635Z,3.87
2018-07-04T20:33:24.089Z,4.17
2018-07-04T20:36:09.799Z,4.30
2018-07-04T20:38:54.462Z,4.30
2018-07-04T20:41:43.933Z,4.13
2018-07-04T20:44:26.451Z,3.57
2018-07-04T20:47:10.232Z,3.90
2018-07-04T20:52:51.944Z,3.93
2018-07-04T20:55:37.158Z,3.90
2018-07-04T20:58:13.357Z,4.10
2018-07-04T21:01:00.873Z,4.20
2018-07-04T21:03:48.618Z,3.73
2018-07-04T21:09:14.191Z,4.00
2018-07-04T21:11:55.894Z,4.20
2018-07-04T21:14:31.921Z,3.70
2018-07-04T22:36:19.205Z,5.60
